Latest Coastal Weather Observations for Cape Leeuwin

IDW60701

Issued at 3:55 am WST Sunday 26 October 2014 (issued every 10 minutes, with the page automatically refreshed every 10 minutes)

About coastal observations | Map of coastal stations | Coastal observations for WA | Marine services | Other Formats
Station Details ID: 009518 Name: CAPE LEEUWIN Lat: -34.37 Lon: 115.14 Height: 13.0 m
Data from the previous 72 hours. | See also: Recent months at Cape Leeuwin
Date/Time
WST
Temp

°C
Wind Pressure Rain
since 9am
mm
Weather Cloud Vis
km
Sea
Height
m
Swell
Dir
 
Speed
knots
Gust
knots
hPa Trend Height
m
Period
s
Dir
26/03:30am 16.0 WSW 25 29 1017.6 - 1.0 - - - - - - -
26/03:00am 15.9 WSW 23 28 1017.5 - 1.0 Recent precip. - - - - - -
26/02:30am 15.3 W 23 33 1017.5 - 0.8 - - - - - - -
26/02:07am 15.6 W 24 38 1017.0 - 0.2 - - - - - - -
26/02:00am 16.2 W 21 25 1017.3 - 0.2 - - - - - - -
26/01:30am 16.3 WSW 24 28 1017.2 - 0.0 - - - - - - -
26/01:00am 17.2 W 22 27 1017.0 - 0.0 - - - - - - -
26/12:30am 17.3 W 22 27 1017.3 - 0.0 - - - - - - -
26/12:00am 17.2 W 27 33 1017.4 - 0.0 - - - - - - -
 
Date/Time
WST
Temp

°C
Wind Pressure Rain
since 9am
mm
Weather Cloud Vis
km
Sea
Height
m
Swell
Dir
 
Speed
knots
Gust
knots
hPa Trend Height
m
Period
s
Dir
25/11:30pm 17.3 W 27 32 1017.3 - 0.0 - - - - - - -
25/11:00pm 16.8 W 25 30 1017.3 - 0.0 - - - - - - -
25/10:30pm 17.4 WNW 24 28 1017.2 - 0.0 - - - - - - -
25/10:00pm 17.3 W 22 26 1017.4 - 0.0 - - - - - - -
25/09:30pm 17.1 W 22 27 1017.7 - 0.0 - - - - - - -
25/09:00pm 17.1 W 23 27 1017.8 - 0.0 - - - - - - -
25/08:30pm 17.2 W 27 30 1017.8 - 0.0 - - - - - - -
25/08:00pm 17.1 W 26 32 1017.6 - 0.0 - - - - - - -
25/07:30pm 17.2 W 25 29 1017.2 - 0.0 - - - - - - -
25/07:00pm 17.2 W 23 28 1017.0 - 0.0 - - - - - - -
25/06:30pm 17.1 W 27 32 1016.6 - 0.0 - - - - - - -
25/06:00pm 17.4 W 24 29 1016.5 - 0.0 - - - - - - -
25/05:30pm 17.5 W 26 30 1016.3 - 0.0 - - - - - - -
25/05:00pm 17.4 W 24 28 1016.2 - 0.0 - - - - - - -
25/04:30pm 18.2 W 22 26 1016.0 - 0.0 - - - - - - -
25/04:00pm 17.9 WNW 25 29 1015.8 - 0.0 - - - - - - -
25/03:30pm 18.7 WNW 23 27 1015.6 - 0.0 - - - - - - -
25/03:00pm 18.8 WNW 24 27 1015.5 - 0.0 - - - - - - -
25/02:30pm 18.7 WNW 24 28 1015.5 - 0.0 - - - - - - -
25/02:00pm 18.4 W 21 25 1015.6 - 0.0 - - - - - - -
25/01:30pm 18.7 W 23 27 1015.6 - 0.0 - - - - - - -
25/01:00pm 18.4 W 24 29 1015.6 - 0.0 - - - - - - -
25/12:30pm 18.3 W 26 31 1015.6 - 0.0 - - - - - - -
25/12:00pm 18.6 W 24 29 1015.4 - 0.0 - - - - - - -
25/11:30am 18.9 W 23 27 1015.4 - 0.0 - - - - - - -
25/11:00am 18.5 W 23 27 1015.4 - 0.0 - - - - - - -
25/10:30am 18.4 W 22 26 1015.3 - 0.0 - - - - - - -
25/10:00am 17.8 W 22 25 1015.3 - 0.0 - - - - - - -
25/09:56am 17.4 W 23 25 1015.3 - 0.0 - - - - - - -
25/09:30am 18.2 WNW 24 31 1015.0 - 0.0 - - - - - - -
25/09:00am 18.6 NW 22 25 1014.9 - 0.0 - - - - - - -
25/08:30am 18.4 WNW 21 24 1014.9 - 0.0 - - - - - - -
25/08:00am 18.2 WNW 19 22 1014.8 - 0.0 - - - - - - -
25/07:30am 17.9 WNW 19 23 1014.7 - 0.0 - - - - - - -
25/07:00am 17.7 WNW 19 22 1014.6 - 0.0 - - - - - - -
25/06:30am 17.5 WNW 19 23 1014.6 - 0.0 - - - - - - -
25/06:00am 17.5 WNW 19 22 1014.3 - 0.0 - - - - - - -
25/05:30am 17.2 WNW 18 21 1013.9 - 0.0 - - - - - - -
25/05:00am 17.2 WNW 17 20 1013.9 - 0.0 - - - - - - -
25/04:30am 17.4 WNW 17 20 1013.9 - 0.0 - - - - - - -
25/04:00am 17.3 NW 15 18 1013.7 - 0.0 - - - - - - -
25/03:30am 17.2 WNW 16 18 1013.7 - 0.0 - - - - - - -
25/03:00am 17.2 W 16 19 1013.6 - 0.0 - - - - - - -
25/02:30am 17.5 WNW 12 15 1013.7 - 0.0 - - - - - - -
25/02:00am 17.6 W 11 14 1013.7 - 0.0 - - - - - - -
25/01:30am 17.7 W 11 14 1013.8 - 0.0 - - - - - - -
25/01:00am 17.0 NNW 7 7 1014.0 - 0.0 - - - - - - -
25/12:30am 17.0 N 6 8 1014.1 - 0.0 - - - - - - -
25/12:00am 17.3 NNW 6 7 1014.4 - 0.0 - - - - - - -
 
Date/Time
WST
Temp

°C
Wind Pressure Rain
since 9am
mm
Weather Cloud Vis
km
Sea
Height
m
Swell
Dir
 
Speed
knots
Gust
knots
hPa Trend Height
m
Period
s
Dir
24/11:30pm 17.7 NW 8 9 1014.6 - 0.0 - - - - - - -
24/11:00pm 17.9 WNW 8 10 1014.5 - 0.0 - - - - - - -
24/10:30pm 17.9 WNW 10 11 1015.0 - 0.0 - - - - - - -
24/10:00pm 18.0 WNW 10 11 1015.1 - 0.0 - - - - - - -
24/09:30pm 18.2 W 11 14 1015.1 - 0.0 - - - - - - -
24/09:00pm 18.3 WNW 10 13 1015.2 - 0.0 - - - - - - -
24/08:30pm 18.5 WNW 10 12 1015.3 - 0.0 - - - - - - -
24/08:00pm 18.6 WNW 11 13 1015.2 - 0.0 - - - - - - -
24/07:30pm 18.6 WNW 12 14 1015.2 - 0.0 - - - - - - -
24/07:00pm 18.3 NNW 9 11 1015.1 - 0.0 - - - - - - -
24/06:30pm 18.9 NNW 13 15 1015.1 - 0.0 - - - - - - -
24/06:00pm 18.9 NW 14 16 1015.2 - 0.0 - - - - - - -
24/05:30pm 18.9 NW 15 17 1015.1 - 0.0 - - - - - - -
24/05:00pm 19.6 NW 15 19 1015.1 - 0.0 - - - - - - -
24/04:30pm 19.4 NW 17 19 1015.1 - 0.0 - - - - - - -
24/04:00pm 19.3 NW 16 19 1015.2 - 0.0 - - - - - - -
24/03:30pm 19.5 NW 17 19 1015.3 - 0.0 - - - - - - -
24/03:00pm 20.1 NW 16 18 1015.2 - 0.0 - - - - - - -
24/02:30pm 20.7 NW 16 19 1015.4 - 0.0 - - - - - - -
24/02:00pm 20.0 WNW 16 18 1015.4 - 0.0 - - - - - - -
24/01:30pm 19.9 WNW 15 17 1015.8 - 0.0 - - - - - - -
24/01:00pm 21.1 W 8 11 1016.2 - 0.0 - - - - - - -
24/12:30pm 19.4 WNW 8 10 1016.5 - 0.0 - - - - - - -
24/12:00pm 19.6 WNW 7 9 1016.8 - 0.0 - - - - - - -
24/11:30am 18.3 SSW 4 5 1017.2 - 0.0 - - - - - - -
24/11:00am 18.4 E 7 9 1017.3 - 0.0 - - - - - - -
24/10:30am 18.2 E 7 11 1017.7 - 0.0 - - - - - - -
24/10:00am 18.6 NE 8 11 1017.9 - 0.0 - - - - - - -
24/09:30am 17.9 NE 10 15 1018.0 - 0.0 - - - - - - -
24/09:00am 17.1 NE 13 16 1017.8 - 0.0 - - - - - - -
24/08:30am 16.6 NE 12 15 1017.9 - 0.0 - - - - - - -
24/08:00am 16.2 NE 10 14 1018.1 - 0.0 - - - - - - -
24/07:30am 15.4 ENE 11 15 1018.0 - 0.0 - - - - - - -
24/07:00am 15.5 ENE 9 11 1017.7 - 0.0 - - - - - - -
24/06:30am 14.2 NE 9 11 1017.7 - 0.0 - - - - - - -
24/06:00am 14.4 NE 8 11 1017.7 - 0.0 - - - - - - -
24/05:30am 14.0 NE 8 11 1017.9 - 0.0 - - - - - - -
24/05:00am 14.3 NE 7 9 1017.5 - 0.0 - - - - - - -
24/04:30am 14.6 NE 5 7 1017.6 - 0.0 - - - - - - -
24/04:00am 14.9 NE 6 7 1017.8 - 0.0 - - - - - - -
24/03:30am 15.6 SE 8 10 1017.9 - 0.0 - - - - - - -
24/03:00am 15.6 SE 7 9 1018.2 - 0.0 - - - - - - -
24/02:30am 15.4 S 5 8 1018.3 - 0.0 - - - - - - -
24/02:00am 15.0 SSE 6 9 1018.2 - 0.0 - - - - - - -
24/01:30am 15.3 S 7 8 1018.4 - 0.0 - - - - - - -
24/01:00am 15.5 SSE 6 9 1018.5 - 0.0 - - - - - - -
24/12:30am 15.7 S 8 11 1018.6 - 0.0 - - - - - - -
24/12:00am 15.8 S 7 10 1018.5 - 0.0 - - - - - - -
 
Date/Time
WST
Temp

°C
Wind Pressure Rain
since 9am
mm
Weather Cloud Vis
km
Sea
Height
m
Swell
Dir
 
Speed
knots
Gust
knots
hPa Trend Height
m
Period
s
Dir
23/11:30pm 15.8 SSE 8 11 1018.5 - 0.0 - - - - - - -
23/11:00pm 15.8 SSE 9 12 1018.6 - 0.0 - - - - - - -
23/10:30pm 15.7 S 10 13 1018.6 - 0.0 - - - - - - -
23/10:00pm 15.9 S 10 12 1018.9 - 0.0 - - - - - - -
23/09:30pm 16.0 S 10 13 1018.9 - 0.0 - - - - - - -
23/09:00pm 15.9 S 10 14 1018.9 - 0.0 - - - - - - -
23/08:30pm 15.8 SSW 12 16 1018.9 - 0.0 - - - - - - -
23/08:00pm 15.9 S 12 16 1018.8 - 0.0 - - - - - - -
23/07:30pm 15.6 S 14 16 1018.4 - 0.0 - - - - - - -
23/07:00pm 15.6 SSW 16 20 1018.1 - 0.0 - - - - - - -
23/06:30pm 15.7 SSW 14 18 1017.9 - 0.0 - - - - - - -
23/06:00pm 16.1 SSW 17 22 1017.6 - 0.0 - - - - - - -
23/05:30pm 16.4 S 12 17 1017.2 - 0.0 - - - - - - -
23/05:00pm 17.7 SW 15 20 1017.0 - 0.0 - - - - - - -
23/04:30pm 19.2 SSW 13 16 1016.9 - 0.0 - - - - - - -
23/04:00pm 18.8 SW 14 16 1016.8 - 0.0 - - - - - - -
23/03:30pm 18.7 SW 13 17 1016.5 - 0.0 - - - - - - -
23/03:00pm 18.9 WSW 14 17 1016.6 - 0.0 - - - - - - -
23/02:30pm 20.6 SSW 9 11 1016.4 - 0.0 - - - - - - -
23/02:00pm 19.1 SW 13 16 1016.3 - 0.0 - - - - - - -
23/01:30pm 20.7 SW 14 18 1016.2 - 0.0 - - - - - - -
23/01:00pm 20.4 SW 15 19 1015.9 - 0.0 - - - - - - -
23/12:30pm 20.2 SW 15 18 1015.8 - 0.0 - - - - - - -
23/12:00pm 19.8 SW 17 20 1015.7 - 0.0 - - - - - - -
23/11:30am 19.1 SW 16 20 1015.5 - 0.0 - - - - - - -
23/11:00am 19.5 SW 17 21 1015.5 - 0.0 - - - - - - -
23/10:30am 19.1 SW 18 22 1015.3 - 0.0 - - - - - - -
23/10:00am 18.3 WSW 22 25 1015.0 - 0.0 - - - - - - -
23/09:30am 17.7 WSW 22 25 1014.6 - 0.0 - - - - - - -
23/09:00am 17.4 SW 21 26 1014.0 - 0.0 - - - - - - -
23/08:30am 17.4 SW 20 26 1013.5 - 0.0 - - - - - - -
23/08:00am 16.9 SW 21 26 1013.1 - 0.0 - - - - - - -
23/07:30am 17.3 SW 23 28 1012.5 - 0.0 - - - - - - -
23/07:00am 17.3 WSW 25 31 1011.9 - 0.0 - - - - - - -
23/06:30am 17.3 WSW 21 26 1011.6 - 0.0 - - - - - - -
23/06:00am 17.4 WSW 21 24 1011.1 - 0.0 - - - - - - -
23/05:30am 17.5 WSW 21 24 1010.9 - 0.0 - - - - - - -
23/05:23am 17.5 WSW 22 24 1010.8 - 0.0 - - - - - - -
23/05:00am 17.6 WNW 23 27 1010.5 - 0.0 - - - - - - -
23/04:30am 17.8 WNW 20 24 1010.5 - 0.0 - - - - - - -
23/04:00am 17.6 WNW 22 25 1010.4 - 0.0 - - - - - - -

Other Formats:

Comma delimited format used in spreadsheet applications
http://www.bom.gov.au/fwo/IDW60701/IDW60701.94601.axf

JavaScript Object Notation format (JSON) in row-major order
http://www.bom.gov.au/fwo/IDW60701/IDW60701.94601.json